CDT,Max TemperatureF,Mean TemperatureF,Min TemperatureF,Max Dew PointF,MeanDew PointF,Min DewpointF,Max Humidity, Mean Humidity, Min Humidity, Max Sea Level PressureIn, Mean Sea Level PressureIn, Min Sea Level PressureIn, Max VisibilityMiles, Mean VisibilityMiles, Min VisibilityMiles, Max Wind SpeedMPH, Mean Wind SpeedMPH, Max Gust SpeedMPH,PrecipitationIn, CloudCover, Events, WindDirDegrees
2012-10-1,66,58,49,46,44,42,80,62,44,29.91,29.86,29.82,10,10,10,13,5,17,0.00,0,,52
2012-10-2,75,62,48,52,47,44,86,60,33,29.90,29.85,29.81,10,10,9,15,4,21,T,2,Rain,27
2012-10-3,67,62,56,54,53,50,80,68,56,30.04,29.96,29.89,10,10,7,9,2,10,T,8,Rain,232
2012-10-4,76,61,46,58,49,43,93,72,50,30.19,30.11,30.05,10,8,1,20,7,25,0.35,4,Rain,270
2012-10-5,47,42,36,43,37,31,89,77,65,30.25,30.20,30.14,10,10,10,13,5,20,0.03,6,Rain,287
2012-10-6,47,39,30,31,28,26,85,67,49,30.25,30.22,30.17,10,10,10,14,6,22,0.00,4,,289
2012-10-7,51,43,34,32,28,21,82,57,32,30.26,30.21,30.17,10,10,10,14,4,17,0.00,4,,291
2012-10-8,60,46,32,34,30,27,82,55,28,30.19,30.11,30.02,10,10,10,23,10,32,0.00,0,,202
2012-10-9,66,53,39,43,39,34,92,63,34,30.02,29.95,29.85,10,10,7,26,12,32,0.18,3,Rain,224
2012-10-10,55,45,34,41,32,26,96,66,35,30.23,30.16,30.01,10,10,10,20,7,28,0.00,0,,282
2012-10-11,66,50,34,43,35,30,89,62,34,30.24,30.16,30.08,10,10,10,21,9,26,0.00,0,,211
2012-10-12,59,50,41,37,32,27,70,52,33,30.43,30.33,30.24,10,10,10,17,8,25,0.00,1,,80
2012-10-13,69,60,51,64,55,38,100,80,59,30.23,29.97,29.75,10,5,1,23,12,31,0.84,7,Rain-Thunderstorm,188
2012-10-14,71,59,46,64,58,43,100,84,68,29.89,29.65,29.51,10,8,2,31,16,41,0.73,7,Rain-Thunderstorm,218
2012-10-15,64,53,42,43,41,40,96,70,43,30.00,29.95,29.90,10,10,7,12,3,16,0.00,0,,285
2012-10-16,73,58,43,54,48,41,92,71,49,29.95,29.73,29.55,10,10,10,25,12,32,0.00,0,,175
2012-10-17,63,56,48,59,54,44,97,77,56,29.57,29.44,29.32,10,6,1,22,12,31,0.95,6,Rain-Thunderstorm,209
2012-10-18,54,48,41,43,38,32,92,69,46,29.52,29.48,29.45,10,10,8,28,13,36,0.16,6,Rain,229
2012-10-19,54,49,44,46,44,40,100,82,63,29.72,29.55,29.42,10,7,2,17,9,23,0.26,8,Rain,261
2012-10-20,56,48,39,45,41,37,100,80,59,29.94,29.84,29.71,10,7,0,12,3,15,T,4,Fog-Rain,269
2012-10-21,71,58,44,57,48,40,92,71,49,29.99,29.95,29.91,10,10,7,13,7,16,0.00,0,,144
2012-10-22,68,64,60,63,60,57,100,89,78,29.97,29.91,29.88,10,9,2,18,8,22,0.37,7,Rain-Thunderstorm,176
2012-10-23,72,66,59,65,61,57,93,83,73,29.92,29.88,29.84,10,9,2,18,9,24,0.02,5,Rain,181
2012-10-24,79,70,60,66,61,58,90,76,62,29.93,29.88,29.82,10,10,9,21,11,25,0.00,1,,181
2012-10-25,75,58,41,63,51,33,92,78,64,30.15,29.86,29.70,10,9,3,26,16,35,0.19,6,Rain,259
2012-10-26,49,42,34,32,28,27,82,64,45,30.36,30.31,30.18,10,10,10,17,8,26,0.00,2,,342
2012-10-27,47,39,30,28,26,25,85,65,45,30.37,30.32,30.27,10,10,10,14,6,18,0.00,0,,4
2012-10-28,52,42,31,34,28,25,82,60,38,30.31,30.29,30.26,10,10,10,16,5,21,0.00,3,,12
2012-10-29,53,42,30,33,26,20,85,57,28,30.35,30.27,30.14,10,10,10,13,6,20,0.00,0,,358
2012-10-30,53,45,36,25,22,18,59,43,26,30.12,29.96,29.86,10,10,10,20,10,30,0.00,0,,343
2012-10-31,51,40,29,28,22,17,72,49,26,29.95,29.93,29.89,10,10,10,16,7,23,0.00,0,,311